sensor_id;sensor_type;location;lat;lon;timestamp;temperature;humidity
1678;DHT22;6034;46.864;15.216;2023-11-21T06:00:43;9.00;99.90
1678;DHT22;6034;46.864;15.216;2023-11-21T06:03:11;9.10;99.90
1678;DHT22;6034;46.864;15.216;2023-11-21T06:05:38;9.10;99.90
1678;DHT22;6034;46.864;15.216;2023-11-21T06:08:06;9.10;99.90
1678;DHT22;6034;46.864;15.216;2023-11-21T06:10:33;9.10;99.90
1678;DHT22;6034;46.864;15.216;2023-11-21T06:13:00;9.10;99.90
1678;DHT22;6034;46.864;15.216;2023-11-21T06:15:29;9.10;99.90
1678;DHT22;6034;46.864;15.216;2023-11-21T06:18:01;9.00;99.90
1678;DHT22;6034;46.864;15.216;2023-11-21T06:20:28;9.00;99.90
1678;DHT22;6034;46.864;15.216;2023-11-21T06:22:55;9.00;99.90
1678;DHT22;6034;46.864;15.216;2023-11-21T06:25:22;9.00;99.90
1678;DHT22;6034;46.864;15.216;2023-11-21T06:27:50;9.00;99.90
1678;DHT22;6034;46.864;15.216;2023-11-21T06:30:19;9.00;99.90
1678;DHT22;6034;46.864;15.216;2023-11-21T06:32:47;9.00;99.90
1678;DHT22;6034;46.864;15.216;2023-11-21T06:35:17;8.90;99.90
1678;DHT22;6034;46.864;15.216;2023-11-21T06:37:44;9.00;99.90
1678;DHT22;6034;46.864;15.216;2023-11-21T06:40:13;8.90;99.90
1678;DHT22;6034;46.864;15.216;2023-11-21T06:42:41;8.90;99.90
1678;DHT22;6034;46.864;15.216;2023-11-21T06:45:08;8.90;99.90
1678;DHT22;6034;46.864;15.216;2023-11-21T06:47:36;8.60;99.90
1678;DHT22;6034;46.864;15.216;2023-11-21T06:50:04;8.60;99.90
1678;DHT22;6034;46.864;15.216;2023-11-21T06:52:34;8.70;99.90
1678;DHT22;6034;46.864;15.216;2023-11-21T06:55:02;8.70;99.90
1678;DHT22;6034;46.864;15.216;2023-11-21T06:57:31;8.70;99.90
1678;DHT22;6034;46.864;15.216;2023-11-21T06:59:59;8.70;99.90
1678;DHT22;6034;46.864;15.216;2023-11-21T07:02:26;8.70;99.90
1678;DHT22;6034;46.864;15.216;2023-11-21T07:04:54;8.70;99.90
1678;DHT22;6034;46.864;15.216;2023-11-21T07:07:21;8.70;99.90
1678;DHT22;6034;46.864;15.216;2023-11-21T07:09:51;8.80;99.90
1678;DHT22;6034;46.864;15.216;2023-11-21T07:12:18;8.80;99.90
1678;DHT22;6034;46.864;15.216;2023-11-21T07:14:45;8.80;99.90
1678;DHT22;6034;46.864;15.216;2023-11-21T07:17:13;8.50;99.90
1678;DHT22;6034;46.864;15.216;2023-11-21T07:19:40;8.70;99.90
1678;DHT22;6034;46.864;15.216;2023-11-21T07:22:07;8.70;99.90
1678;DHT22;6034;46.864;15.216;2023-11-21T07:24:36;8.50;99.90
1678;DHT22;6034;46.864;15.216;2023-11-21T07:27:05;8.50;99.90
1678;DHT22;6034;46.864;15.216;2023-11-21T07:29:32;8.50;99.90
1678;DHT22;6034;46.864;15.216;2023-11-21T07:32:00;8.50;99.90
1678;DHT22;6034;46.864;15.216;2023-11-21T07:34:27;8.50;99.90
1678;DHT22;6034;46.864;15.216;2023-11-21T07:36:54;8.50;99.90
1678;DHT22;6034;46.864;15.216;2023-11-21T07:39:21;8.60;99.90
1678;DHT22;6034;46.864;15.216;2023-11-21T07:41:49;8.50;99.90
1678;DHT22;6034;46.864;15.216;2023-11-21T07:44:17;8.50;99.90
1678;DHT22;6034;46.864;15.216;2023-11-21T07:46:46;8.20;99.90
1678;DHT22;6034;46.864;15.216;2023-11-21T07:49:13;8.20;99.90
1678;DHT22;6034;46.864;15.216;2023-11-21T07:51:42;8.10;99.90
1678;DHT22;6034;46.864;15.216;2023-11-21T07:54:09;8.40;99.90
1678;DHT22;6034;46.864;15.216;2023-11-21T07:56:37;8.40;99.90
1678;DHT22;6034;46.864;15.216;2023-11-21T07:59:04;8.50;99.90
1678;DHT22;6034;46.864;15.216;2023-11-21T08:01:33;8.60;99.90
1678;DHT22;6034;46.864;15.216;2023-11-21T08:04:00;8.50;99.90
1678;DHT22;6034;46.864;15.216;2023-11-21T08:06:30;8.50;99.90
1678;DHT22;6034;46.864;15.216;2023-11-21T08:08:59;9.00;99.90
1678;DHT22;6034;46.864;15.216;2023-11-21T08:11:26;8.60;99.90
1678;DHT22;6034;46.864;15.216;2023-11-21T08:13:55;8.60;99.90
1678;DHT22;6034;46.864;15.216;2023-11-21T08:16:22;8.70;99.90
1678;DHT22;6034;46.864;15.216;2023-11-21T08:18:51;8.80;99.90
1678;DHT22;6034;46.864;15.216;2023-11-21T08:21:18;8.80;99.90
1678;DHT22;6034;46.864;15.216;2023-11-21T08:23:45;8.80;99.90
1678;DHT22;6034;46.864;15.216;2023-11-21T08:26:19;8.80;99.90
1678;DHT22;6034;46.864;15.216;2023-11-21T08:28:47;8.80;99.90
1678;DHT22;6034;46.864;15.216;2023-11-21T08:31:15;8.80;99.90
1678;DHT22;6034;46.864;15.216;2023-11-21T08:33:42;8.80;99.90
1678;DHT22;6034;46.864;15.216;2023-11-21T08:36:11;8.70;99.90
1678;DHT22;6034;46.864;15.216;2023-11-21T08:38:38;8.80;99.90
1678;DHT22;6034;46.864;15.216;2023-11-21T08:41:07;8.70;99.90
1678;DHT22;6034;46.864;15.216;2023-11-21T08:43:35;8.80;99.90
1678;DHT22;6034;46.864;15.216;2023-11-21T08:46:05;8.70;99.90
1678;DHT22;6034;46.864;15.216;2023-11-21T08:48:35;8.70;99.90
1678;DHT22;6034;46.864;15.216;2023-11-21T08:51:03;8.70;99.90
1678;DHT22;6034;46.864;15.216;2023-11-21T08:53:32;8.70;99.90
1678;DHT22;6034;46.864;15.216;2023-11-21T08:55:59;8.60;99.90
1678;DHT22;6034;46.864;15.216;2023-11-21T08:58:26;8.50;99.90
1678;DHT22;6034;46.864;15.216;2023-11-21T09:00:57;8.60;99.90
1678;DHT22;6034;46.864;15.216;2023-11-21T09:03:31;8.70;99.90
1678;DHT22;6034;46.864;15.216;2023-11-21T09:06:01;8.70;99.90
1678;DHT22;6034;46.864;15.216;2023-11-21T09:08:29;8.60;99.90
1678;DHT22;6034;46.864;15.216;2023-11-21T09:10:59;8.60;99.90
1678;DHT22;6034;46.864;15.216;2023-11-21T09:13:26;8.50;99.90
1678;DHT22;6034;46.864;15.216;2023-11-21T09:15:54;8.60;99.90
1678;DHT22;6034;46.864;15.216;2023-11-21T09:18:22;8.70;99.90
1678;DHT22;6034;46.864;15.216;2023-11-21T09:20:49;8.70;99.90
1678;DHT22;6034;46.864;15.216;2023-11-21T09:23:16;8.80;99.90
1678;DHT22;6034;46.864;15.216;2023-11-21T09:25:43;8.80;99.90
1678;DHT22;6034;46.864;15.216;2023-11-21T09:28:15;8.80;99.90
1678;DHT22;6034;46.864;15.216;2023-11-21T09:30:43;8.80;99.90
1678;DHT22;6034;46.864;15.216;2023-11-21T09:33:10;8.80;99.90
1678;DHT22;6034;46.864;15.216;2023-11-21T09:35:37;8.80;99.90
1678;DHT22;6034;46.864;15.216;2023-11-21T09:38:05;8.90;99.90
1678;DHT22;6034;46.864;15.216;2023-11-21T09:40:35;8.90;99.90
1678;DHT22;6034;46.864;15.216;2023-11-21T09:43:06;8.90;99.90
1678;DHT22;6034;46.864;15.216;2023-11-21T09:45:37;9.00;99.90
1678;DHT22;6034;46.864;15.216;2023-11-21T09:48:06;8.90;99.90
1678;DHT22;6034;46.864;15.216;2023-11-21T09:50:35;8.90;99.90
1678;DHT22;6034;46.864;15.216;2023-11-21T09:53:12;9.00;99.90
1678;DHT22;6034;46.864;15.216;2023-11-21T09:55:42;8.90;99.90
1678;DHT22;6034;46.864;15.216;2023-11-21T09:58:10;8.90;99.90
1678;DHT22;6034;46.864;15.216;2023-11-21T10:00:42;8.80;99.90
1678;DHT22;6034;46.864;15.216;2023-11-21T10:03:10;8.70;99.90
1678;DHT22;6034;46.864;15.216;2023-11-21T10:05:39;8.70;99.90
1678;DHT22;6034;46.864;15.216;2023-11-21T10:08:08;8.80;99.90
1678;DHT22;6034;46.864;15.216;2023-11-21T10:10:37;8.80;99.90
1678;DHT22;6034;46.864;15.216;2023-11-21T10:13:07;8.90;99.90
1678;DHT22;6034;46.864;15.216;2023-11-21T10:15:38;9.00;99.90
1678;DHT22;6034;46.864;15.216;2023-11-21T10:18:12;9.00;99.90
1678;DHT22;6034;46.864;15.216;2023-11-21T10:20:43;9.00;99.90
1678;DHT22;6034;46.864;15.216;2023-11-21T10:23:12;9.00;99.90
1678;DHT22;6034;46.864;15.216;2023-11-21T10:25:40;9.00;99.90
1678;DHT22;6034;46.864;15.216;2023-11-21T10:28:07;9.10;99.90
1678;DHT22;6034;46.864;15.216;2023-11-21T10:30:37;9.10;99.90
1678;DHT22;6034;46.864;15.216;2023-11-21T10:33:06;9.10;99.90
1678;DHT22;6034;46.864;15.216;2023-11-21T10:35:42;9.10;99.90
1678;DHT22;6034;46.864;15.216;2023-11-21T10:38:13;9.10;99.90
1678;DHT22;6034;46.864;15.216;2023-11-21T10:40:40;9.10;99.90
1678;DHT22;6034;46.864;15.216;2023-11-21T10:43:09;9.20;99.90
1678;DHT22;6034;46.864;15.216;2023-11-21T10:45:37;9.20;99.90
1678;DHT22;6034;46.864;15.216;2023-11-21T10:48:07;9.20;99.90
1678;DHT22;6034;46.864;15.216;2023-11-21T10:50:36;9.30;99.90
1678;DHT22;6034;46.864;15.216;2023-11-21T10:53:05;9.30;99.90
1678;DHT22;6034;46.864;15.216;2023-11-21T10:55:33;9.40;99.90
1678;DHT22;6034;46.864;15.216;2023-11-21T10:58:02;9.40;99.90
1678;DHT22;6034;46.864;15.216;2023-11-21T11:00:31;9.50;99.90
1678;DHT22;6034;46.864;15.216;2023-11-21T11:03:00;9.50;99.90
1678;DHT22;6034;46.864;15.216;2023-11-21T11:05:28;9.50;99.90
1678;DHT22;6034;46.864;15.216;2023-11-21T11:08:00;9.50;99.90
1678;DHT22;6034;46.864;15.216;2023-11-21T11:10:32;9.50;99.90
1678;DHT22;6034;46.864;15.216;2023-11-21T11:12:59;9.50;99.90
1678;DHT22;6034;46.864;15.216;2023-11-21T11:15:27;9.50;99.90
1678;DHT22;6034;46.864;15.216;2023-11-21T11:17:55;9.50;99.90
1678;DHT22;6034;46.864;15.216;2023-11-21T11:20:25;9.50;99.90
1678;DHT22;6034;46.864;15.216;2023-11-21T11:23:05;9.40;99.90
1678;DHT22;6034;46.864;15.216;2023-11-21T11:25:59;9.40;99.90
1678;DHT22;6034;46.864;15.216;2023-11-21T11:28:38;9.50;99.90
1678;DHT22;6034;46.864;15.216;2023-11-21T11:31:15;9.50;99.90
1678;DHT22;6034;46.864;15.216;2023-11-21T11:33:50;9.40;99.90
1678;DHT22;6034;46.864;15.216;2023-11-21T11:36:26;9.50;99.90
1678;DHT22;6034;46.864;15.216;2023-11-21T11:38:55;9.50;99.90
1678;DHT22;6034;46.864;15.216;2023-11-21T11:41:28;9.50;99.90
1678;DHT22;6034;46.864;15.216;2023-11-21T11:43:58;9.60;99.90
1678;DHT22;6034;46.864;15.216;2023-11-21T11:46:41;9.60;99.90
1678;DHT22;6034;46.864;15.216;2023-11-21T11:49:08;9.60;99.90
1678;DHT22;6034;46.864;15.216;2023-11-21T11:51:37;9.40;99.90
1678;DHT22;6034;46.864;15.216;2023-11-21T11:54:05;9.60;99.90
1678;DHT22;6034;46.864;15.216;2023-11-21T11:56:36;9.60;99.90
1678;DHT22;6034;46.864;15.216;2023-11-21T11:59:06;9.60;99.90
1678;DHT22;6034;46.864;15.216;2023-11-21T12:01:35;9.70;99.90
1678;DHT22;6034;46.864;15.216;2023-11-21T12:04:26;9.70;99.90
1678;DHT22;6034;46.864;15.216;2023-11-21T12:07:01;9.60;99.90
1678;DHT22;6034;46.864;15.216;2023-11-21T12:09:31;9.60;99.90
1678;DHT22;6034;46.864;15.216;2023-11-21T12:12:00;9.50;99.90
1678;DHT22;6034;46.864;15.216;2023-11-21T12:14:28;9.50;99.90
1678;DHT22;6034;46.864;15.216;2023-11-21T12:16:55;9.30;99.90
1678;DHT22;6034;46.864;15.216;2023-11-21T12:19:23;9.20;99.90
1678;DHT22;6034;46.864;15.216;2023-11-21T12:21:50;9.10;99.90
1678;DHT22;6034;46.864;15.216;2023-11-21T12:24:18;9.00;99.90
1678;DHT22;6034;46.864;15.216;2023-11-21T12:26:45;9.10;99.90
1678;DHT22;6034;46.864;15.216;2023-11-21T12:29:14;9.30;99.90
1678;DHT22;6034;46.864;15.216;2023-11-21T12:31:42;9.30;99.90
1678;DHT22;6034;46.864;15.216;2023-11-21T12:34:10;9.30;99.90
1678;DHT22;6034;46.864;15.216;2023-11-21T12:36:38;9.20;99.90
1678;DHT22;6034;46.864;15.216;2023-11-21T12:39:05;9.20;99.90
1678;DHT22;6034;46.864;15.216;2023-11-21T12:41:35;9.20;99.90
1678;DHT22;6034;46.864;15.216;2023-11-21T12:44:02;9.20;99.90
1678;DHT22;6034;46.864;15.216;2023-11-21T12:46:31;9.20;99.90
1678;DHT22;6034;46.864;15.216;2023-11-21T12:49:00;9.20;99.90
1678;DHT22;6034;46.864;15.216;2023-11-21T12:51:27;9.30;99.90
1678;DHT22;6034;46.864;15.216;2023-11-21T12:53:56;9.30;99.90
1678;DHT22;6034;46.864;15.216;2023-11-21T12:56:24;9.40;99.90
1678;DHT22;6034;46.864;15.216;2023-11-21T12:58:54;9.40;99.90
1678;DHT22;6034;46.864;15.216;2023-11-21T13:01:26;9.40;99.90
1678;DHT22;6034;46.864;15.216;2023-11-21T13:03:57;9.30;99.90
1678;DHT22;6034;46.864;15.216;2023-11-21T13:06:25;9.60;99.90
1678;DHT22;6034;46.864;15.216;2023-11-21T13:08:54;9.30;99.90
1678;DHT22;6034;46.864;15.216;2023-11-21T13:11:22;9.30;99.90
1678;DHT22;6034;46.864;15.216;2023-11-21T13:13:52;8.90;99.90
1678;DHT22;6034;46.864;15.216;2023-11-21T13:16:20;8.80;99.90
1678;DHT22;6034;46.864;15.216;2023-11-21T13:18:47;8.90;99.90
1678;DHT22;6034;46.864;15.216;2023-11-21T13:21:16;8.90;99.90
1678;DHT22;6034;46.864;15.216;2023-11-21T13:23:44;8.80;99.90
1678;DHT22;6034;46.864;15.216;2023-11-21T13:26:12;8.60;99.90
1678;DHT22;6034;46.864;15.216;2023-11-21T13:28:40;8.50;99.90
1678;DHT22;6034;46.864;15.216;2023-11-21T13:31:13;8.60;99.90
1678;DHT22;6034;46.864;15.216;2023-11-21T13:33:51;8.70;99.90
1678;DHT22;6034;46.864;15.216;2023-11-21T13:36:23;8.70;99.90
1678;DHT22;6034;46.864;15.216;2023-11-21T13:38:50;8.70;99.90
1678;DHT22;6034;46.864;15.216;2023-11-21T13:41:18;8.90;99.90
1678;DHT22;6034;46.864;15.216;2023-11-21T13:43:45;9.00;99.90
1678;DHT22;6034;46.864;15.216;2023-11-21T13:46:23;9.00;99.90
1678;DHT22;6034;46.864;15.216;2023-11-21T13:48:51;9.00;99.90
1678;DHT22;6034;46.864;15.216;2023-11-21T13:51:23;9.10;99.90
1678;DHT22;6034;46.864;15.216;2023-11-21T13:54:00;9.10;99.90
1678;DHT22;6034;46.864;15.216;2023-11-21T13:56:27;9.00;99.90
1678;DHT22;6034;46.864;15.216;2023-11-21T13:58:55;9.00;99.90
1678;DHT22;6034;46.864;15.216;2023-11-21T14:01:25;8.80;99.90
1678;DHT22;6034;46.864;15.216;2023-11-21T14:04:10;8.70;99.90
1678;DHT22;6034;46.864;15.216;2023-11-21T14:06:47;8.90;99.90
1678;DHT22;6034;46.864;15.216;2023-11-21T14:09:15;8.90;99.90
1678;DHT22;6034;46.864;15.216;2023-11-21T14:11:49;8.90;99.90
1678;DHT22;6034;46.864;15.216;2023-11-21T14:14:18;9.00;99.90
1678;DHT22;6034;46.864;15.216;2023-11-21T14:16:46;9.00;99.90
1678;DHT22;6034;46.864;15.216;2023-11-21T14:19:13;9.00;99.90
1678;DHT22;6034;46.864;15.216;2023-11-21T14:21:43;9.10;99.90
1678;DHT22;6034;46.864;15.216;2023-11-21T14:24:13;9.10;99.90
1678;DHT22;6034;46.864;15.216;2023-11-21T14:26:42;9.00;99.90
1678;DHT22;6034;46.864;15.216;2023-11-21T14:29:11;9.10;99.90
1678;DHT22;6034;46.864;15.216;2023-11-21T14:31:40;9.10;99.90
1678;DHT22;6034;46.864;15.216;2023-11-21T14:34:08;9.10;99.90
1678;DHT22;6034;46.864;15.216;2023-11-21T14:36:36;9.10;99.90
1678;DHT22;6034;46.864;15.216;2023-11-21T14:39:05;9.10;99.90
1678;DHT22;6034;46.864;15.216;2023-11-21T14:41:38;9.00;99.90
1678;DHT22;6034;46.864;15.216;2023-11-21T14:44:06;9.00;99.90
1678;DHT22;6034;46.864;15.216;2023-11-21T14:46:37;9.00;99.90
1678;DHT22;6034;46.864;15.216;2023-11-21T14:49:05;9.00;99.90
1678;DHT22;6034;46.864;15.216;2023-11-21T14:51:46;9.10;99.90
1678;DHT22;6034;46.864;15.216;2023-11-21T14:54:27;9.10;99.90
1678;DHT22;6034;46.864;15.216;2023-11-21T14:57:07;9.20;99.90
1678;DHT22;6034;46.864;15.216;2023-11-21T14:59:37;9.20;99.90
1678;DHT22;6034;46.864;15.216;2023-11-21T15:02:04;9.10;99.90
1678;DHT22;6034;46.864;15.216;2023-11-21T15:04:41;9.10;99.90
1678;DHT22;6034;46.864;15.216;2023-11-21T15:07:09;9.10;99.90
1678;DHT22;6034;46.864;15.216;2023-11-21T15:09:37;9.10;99.90
1678;DHT22;6034;46.864;15.216;2023-11-21T15:12:12;9.20;99.90
1678;DHT22;6034;46.864;15.216;2023-11-21T15:14:43;9.10;99.90
1678;DHT22;6034;46.864;15.216;2023-11-21T15:17:11;8.90;99.90
1678;DHT22;6034;46.864;15.216;2023-11-21T15:19:43;9.10;99.90
1678;DHT22;6034;46.864;15.216;2023-11-21T15:22:13;9.10;99.90
1678;DHT22;6034;46.864;15.216;2023-11-21T15:24:44;9.10;99.90
1678;DHT22;6034;46.864;15.216;2023-11-21T15:27:21;9.10;99.90
1678;DHT22;6034;46.864;15.216;2023-11-21T15:29:48;8.80;99.90
1678;DHT22;6034;46.864;15.216;2023-11-21T15:32:16;9.00;99.90
1678;DHT22;6034;46.864;15.216;2023-11-21T15:34:44;9.00;99.90
1678;DHT22;6034;46.864;15.216;2023-11-21T15:37:12;9.10;99.90
1678;DHT22;6034;46.864;15.216;2023-11-21T15:39:40;9.10;99.90
1678;DHT22;6034;46.864;15.216;2023-11-21T15:42:07;9.10;99.90
1678;DHT22;6034;46.864;15.216;2023-11-21T15:44:37;9.10;99.90
1678;DHT22;6034;46.864;15.216;2023-11-21T15:47:04;9.10;99.90
1678;DHT22;6034;46.864;15.216;2023-11-21T15:49:36;9.00;99.90
1678;DHT22;6034;46.864;15.216;2023-11-21T15:52:04;8.90;99.90
1678;DHT22;6034;46.864;15.216;2023-11-21T15:54:35;9.00;99.90
1678;DHT22;6034;46.864;15.216;2023-11-21T15:57:04;8.90;99.90
1678;DHT22;6034;46.864;15.216;2023-11-21T15:59:33;8.90;99.90
1678;DHT22;6034;46.864;15.216;2023-11-21T16:02:02;8.90;99.90
1678;DHT22;6034;46.864;15.216;2023-11-21T16:04:30;8.80;99.90
1678;DHT22;6034;46.864;15.216;2023-11-21T16:06:57;8.90;99.90
1678;DHT22;6034;46.864;15.216;2023-11-21T16:09:25;8.90;99.90
1678;DHT22;6034;46.864;15.216;2023-11-21T16:11:56;8.90;99.90
1678;DHT22;6034;46.864;15.216;2023-11-21T16:14:27;8.90;99.90
1678;DHT22;6034;46.864;15.216;2023-11-21T16:17:02;8.90;99.90
1678;DHT22;6034;46.864;15.216;2023-11-21T16:19:30;8.90;99.90
1678;DHT22;6034;46.864;15.216;2023-11-21T16:21:57;8.70;99.90
1678;DHT22;6034;46.864;15.216;2023-11-21T16:24:26;8.80;99.90
1678;DHT22;6034;46.864;15.216;2023-11-21T16:26:54;8.80;99.90
1678;DHT22;6034;46.864;15.216;2023-11-21T16:29:22;8.70;99.90
1678;DHT22;6034;46.864;15.216;2023-11-21T16:31:49;8.70;99.90
1678;DHT22;6034;46.864;15.216;2023-11-21T16:34:19;8.70;99.90
1678;DHT22;6034;46.864;15.216;2023-11-21T16:36:48;8.70;99.90
1678;DHT22;6034;46.864;15.216;2023-11-21T16:39:17;8.70;99.90
1678;DHT22;6034;46.864;15.216;2023-11-21T16:41:47;8.80;99.90
1678;DHT22;6034;46.864;15.216;2023-11-21T16:44:16;8.80;99.90
1678;DHT22;6034;46.864;15.216;2023-11-21T16:46:44;8.80;99.90
1678;DHT22;6034;46.864;15.216;2023-11-21T16:49:13;8.80;99.90
1678;DHT22;6034;46.864;15.216;2023-11-21T16:51:42;8.70;99.90
1678;DHT22;6034;46.864;15.216;2023-11-21T16:54:09;8.70;99.90
1678;DHT22;6034;46.864;15.216;2023-11-21T16:56:37;8.70;99.90
1678;DHT22;6034;46.864;15.216;2023-11-21T16:59:04;8.70;99.90
1678;DHT22;6034;46.864;15.216;2023-11-21T17:01:31;8.70;99.90
1678;DHT22;6034;46.864;15.216;2023-11-21T17:03:59;8.60;99.90
1678;DHT22;6034;46.864;15.216;2023-11-21T17:06:28;8.60;99.90
1678;DHT22;6034;46.864;15.216;2023-11-21T17:09:04;8.50;99.90
1678;DHT22;6034;46.864;15.216;2023-11-21T17:11:35;8.50;99.90
1678;DHT22;6034;46.864;15.216;2023-11-21T17:14:03;8.50;99.90
1678;DHT22;6034;46.864;15.216;2023-11-21T17:16:31;8.50;99.90
1678;DHT22;6034;46.864;15.216;2023-11-21T17:18:59;8.50;99.90
1678;DHT22;6034;46.864;15.216;2023-11-21T17:21:27;8.30;99.90
1678;DHT22;6034;46.864;15.216;2023-11-21T17:23:56;8.40;99.90
1678;DHT22;6034;46.864;15.216;2023-11-21T17:26:24;8.50;99.90
1678;DHT22;6034;46.864;15.216;2023-11-21T17:28:52;8.50;99.90
1678;DHT22;6034;46.864;15.216;2023-11-21T17:31:20;8.50;99.90
1678;DHT22;6034;46.864;15.216;2023-11-21T17:33:48;8.50;99.90
1678;DHT22;6034;46.864;15.216;2023-11-21T17:36:15;8.50;99.90
1678;DHT22;6034;46.864;15.216;2023-11-21T17:38:44;8.50;99.90
1678;DHT22;6034;46.864;15.216;2023-11-21T17:41:11;8.60;99.90
1678;DHT22;6034;46.864;15.216;2023-11-21T17:43:40;8.50;99.90
1678;DHT22;6034;46.864;15.216;2023-11-21T17:46:10;8.50;99.90
1678;DHT22;6034;46.864;15.216;2023-11-21T17:48:37;8.60;99.90
1678;DHT22;6034;46.864;15.216;2023-11-21T17:51:06;8.60;99.90
1678;DHT22;6034;46.864;15.216;2023-11-21T17:53:34;8.50;99.90
1678;DHT22;6034;46.864;15.216;2023-11-21T17:56:02;8.50;99.90
1678;DHT22;6034;46.864;15.216;2023-11-21T17:58:29;8.50;99.90
1678;DHT22;6034;46.864;15.216;2023-11-21T18:00:58;8.60;99.90
1678;DHT22;6034;46.864;15.216;2023-11-21T18:03:25;8.60;99.90
1678;DHT22;6034;46.864;15.216;2023-11-21T18:05:53;8.60;99.90
1678;DHT22;6034;46.864;15.216;2023-11-21T18:08:20;8.60;99.90
1678;DHT22;6034;46.864;15.216;2023-11-21T18:10:48;8.60;99.90
1678;DHT22;6034;46.864;15.216;2023-11-21T18:13:16;8.60;99.90
1678;DHT22;6034;46.864;15.216;2023-11-21T18:15:44;8.60;99.90
1678;DHT22;6034;46.864;15.216;2023-11-21T18:18:13;8.60;99.90
1678;DHT22;6034;46.864;15.216;2023-11-21T18:20:40;8.60;99.90
1678;DHT22;6034;46.864;15.216;2023-11-21T18:23:08;8.60;99.90
1678;DHT22;6034;46.864;15.216;2023-11-21T18:25:36;8.60;99.90
1678;DHT22;6034;46.864;15.216;2023-11-21T18:28:04;8.60;99.90
1678;DHT22;6034;46.864;15.216;2023-11-21T18:30:33;8.60;99.90
1678;DHT22;6034;46.864;15.216;2023-11-21T18:33:01;8.60;99.90
1678;DHT22;6034;46.864;15.216;2023-11-21T18:35:29;8.60;99.90
1678;DHT22;6034;46.864;15.216;2023-11-21T18:37:57;8.60;99.90
1678;DHT22;6034;46.864;15.216;2023-11-21T18:40:26;8.60;99.90
1678;DHT22;6034;46.864;15.216;2023-11-21T18:42:54;8.60;99.90
1678;DHT22;6034;46.864;15.216;2023-11-21T18:45:22;8.60;99.90
1678;DHT22;6034;46.864;15.216;2023-11-21T18:47:49;8.60;99.90
1678;DHT22;6034;46.864;15.216;2023-11-21T18:50:16;8.60;99.90
1678;DHT22;6034;46.864;15.216;2023-11-21T18:52:48;8.50;99.90
1678;DHT22;6034;46.864;15.216;2023-11-21T18:55:16;8.50;99.90
1678;DHT22;6034;46.864;15.216;2023-11-21T18:57:43;8.50;99.90
1678;DHT22;6034;46.864;15.216;2023-11-21T19:00:11;8.50;99.90
1678;DHT22;6034;46.864;15.216;2023-11-21T19:02:40;8.50;99.90
1678;DHT22;6034;46.864;15.216;2023-11-21T19:05:08;8.60;99.90
1678;DHT22;6034;46.864;15.216;2023-11-21T19:07:36;8.50;99.90
1678;DHT22;6034;46.864;15.216;2023-11-21T19:10:06;8.50;99.90
1678;DHT22;6034;46.864;15.216;2023-11-21T19:12:35;8.50;99.90
1678;DHT22;6034;46.864;15.216;2023-11-21T19:15:05;8.50;99.90
1678;DHT22;6034;46.864;15.216;2023-11-21T19:17:34;8.50;99.90
1678;DHT22;6034;46.864;15.216;2023-11-21T19:20:01;8.50;99.90
1678;DHT22;6034;46.864;15.216;2023-11-21T19:22:29;8.50;99.90
1678;DHT22;6034;46.864;15.216;2023-11-21T19:24:59;8.50;99.90
1678;DHT22;6034;46.864;15.216;2023-11-21T19:27:28;8.60;99.90
1678;DHT22;6034;46.864;15.216;2023-11-21T19:29:56;8.60;99.90
1678;DHT22;6034;46.864;15.216;2023-11-21T19:32:23;8.60;99.90
1678;DHT22;6034;46.864;15.216;2023-11-21T19:34:51;8.60;99.90
1678;DHT22;6034;46.864;15.216;2023-11-21T19:37:18;8.50;99.90
1678;DHT22;6034;46.864;15.216;2023-11-21T19:39:45;8.40;99.90
1678;DHT22;6034;46.864;15.216;2023-11-21T19:42:13;8.50;99.90
1678;DHT22;6034;46.864;15.216;2023-11-21T19:44:43;8.50;99.90
1678;DHT22;6034;46.864;15.216;2023-11-21T19:47:11;8.50;99.90
1678;DHT22;6034;46.864;15.216;2023-11-21T19:49:39;8.40;99.90
1678;DHT22;6034;46.864;15.216;2023-11-21T19:52:06;8.20;99.90
1678;DHT22;6034;46.864;15.216;2023-11-21T19:54:33;8.30;99.90
1678;DHT22;6034;46.864;15.216;2023-11-21T19:57:01;8.30;99.90
1678;DHT22;6034;46.864;15.216;2023-11-21T19:59:30;8.20;99.90
1678;DHT22;6034;46.864;15.216;2023-11-21T20:01:59;8.10;99.90
1678;DHT22;6034;46.864;15.216;2023-11-21T20:04:28;8.20;99.90
1678;DHT22;6034;46.864;15.216;2023-11-21T20:06:55;8.20;99.90
1678;DHT22;6034;46.864;15.216;2023-11-21T20:09:23;8.20;99.90
1678;DHT22;6034;46.864;15.216;2023-11-21T20:11:50;8.20;99.90
1678;DHT22;6034;46.864;15.216;2023-11-21T20:14:17;8.20;99.90
1678;DHT22;6034;46.864;15.216;2023-11-21T20:16:44;8.20;99.90
1678;DHT22;6034;46.864;15.216;2023-11-21T20:19:16;8.10;99.90
1678;DHT22;6034;46.864;15.216;2023-11-21T20:21:44;8.10;99.90
1678;DHT22;6034;46.864;15.216;2023-11-21T20:24:12;8.10;99.90
1678;DHT22;6034;46.864;15.216;2023-11-21T20:26:39;8.00;99.90
1678;DHT22;6034;46.864;15.216;2023-11-21T20:29:07;7.90;99.90
1678;DHT22;6034;46.864;15.216;2023-11-21T20:31:35;8.00;99.90
1678;DHT22;6034;46.864;15.216;2023-11-21T20:34:03;8.10;99.90
1678;DHT22;6034;46.864;15.216;2023-11-21T20:36:34;8.00;99.90
1678;DHT22;6034;46.864;15.216;2023-11-21T20:39:01;7.90;99.90
1678;DHT22;6034;46.864;15.216;2023-11-21T20:41:28;7.90;99.90
1678;DHT22;6034;46.864;15.216;2023-11-21T20:43:56;7.90;99.90
1678;DHT22;6034;46.864;15.216;2023-11-21T20:46:24;7.90;99.90
1678;DHT22;6034;46.864;15.216;2023-11-21T20:48:51;8.00;99.90
1678;DHT22;6034;46.864;15.216;2023-11-21T20:51:21;8.00;99.90
1678;DHT22;6034;46.864;15.216;2023-11-21T20:53:50;8.00;99.90
1678;DHT22;6034;46.864;15.216;2023-11-21T20:56:17;8.00;99.90
1678;DHT22;6034;46.864;15.216;2023-11-21T20:58:45;7.90;99.90
1678;DHT22;6034;46.864;15.216;2023-11-21T21:01:13;7.90;99.90
1678;DHT22;6034;46.864;15.216;2023-11-21T21:03:41;7.90;99.90
1678;DHT22;6034;46.864;15.216;2023-11-21T21:06:11;7.90;99.90
1678;DHT22;6034;46.864;15.216;2023-11-21T21:08:38;7.70;99.90
1678;DHT22;6034;46.864;15.216;2023-11-21T21:11:07;7.60;99.90
1678;DHT22;6034;46.864;15.216;2023-11-21T21:13:35;7.70;99.90
1678;DHT22;6034;46.864;15.216;2023-11-21T21:16:03;7.80;99.90
1678;DHT22;6034;46.864;15.216;2023-11-21T21:18:31;7.80;99.90
1678;DHT22;6034;46.864;15.216;2023-11-21T21:20:58;7.80;99.90
1678;DHT22;6034;46.864;15.216;2023-11-21T21:23:27;7.90;99.90
1678;DHT22;6034;46.864;15.216;2023-11-21T21:25:55;7.90;99.90
1678;DHT22;6034;46.864;15.216;2023-11-21T21:28:24;7.90;99.90
1678;DHT22;6034;46.864;15.216;2023-11-21T21:30:51;7.90;99.90
1678;DHT22;6034;46.864;15.216;2023-11-21T21:33:19;7.90;99.90
1678;DHT22;6034;46.864;15.216;2023-11-21T21:35:46;7.90;99.90
1678;DHT22;6034;46.864;15.216;2023-11-21T21:38:13;7.80;99.90
1678;DHT22;6034;46.864;15.216;2023-11-21T21:40:40;7.90;99.90
1678;DHT22;6034;46.864;15.216;2023-11-21T21:43:08;7.90;99.90
1678;DHT22;6034;46.864;15.216;2023-11-21T21:45:37;7.80;99.90
1678;DHT22;6034;46.864;15.216;2023-11-21T21:48:04;7.60;99.90
1678;DHT22;6034;46.864;15.216;2023-11-21T21:50:33;7.70;99.90
1678;DHT22;6034;46.864;15.216;2023-11-21T21:53:01;7.80;99.90
1678;DHT22;6034;46.864;15.216;2023-11-21T21:55:28;7.70;99.90
1678;DHT22;6034;46.864;15.216;2023-11-21T21:57:56;7.80;99.90
1678;DHT22;6034;46.864;15.216;2023-11-21T22:00:23;7.80;99.90
1678;DHT22;6034;46.864;15.216;2023-11-21T22:02:52;7.80;99.90
1678;DHT22;6034;46.864;15.216;2023-11-21T22:05:19;7.80;99.90
1678;DHT22;6034;46.864;15.216;2023-11-21T22:07:47;7.80;99.90
1678;DHT22;6034;46.864;15.216;2023-11-21T22:10:15;7.70;99.90
1678;DHT22;6034;46.864;15.216;2023-11-21T22:12:42;7.70;99.90